Time;durP1;ratioP1;P1;durP2;ratioP2;P2;SDS_P1;SDS_P2;PMS_P1;PMS_P2;Temp;Humidity;BMP_temperature;BMP_pressure;BME280_temperature;BME280_humidity;BME280_pressure;Samples;Min_cycle;Max_cycle;Signal;HPM_P1;HPM_P2
2021/07/11 00:01:53;;;;;;;;;;;;;;;20.71;62.06;99473.34;5098184;28;841;-66
2021/07/11 00:04:21;;;;;;;;;;;;;;;20.69;62.20;99471.00;5098104;28;1945;-66
2021/07/11 00:06:47;;;;;;;;;;;;;;;20.66;62.15;99469.19;5098235;28;1017;-66
2021/07/11 00:09:14;;;;;;;;;;;;;;;20.64;62.22;99468.13;5098117;28;865;-66
2021/07/11 00:11:40;;;;;;;;;;;;;;;20.63;62.21;99464.50;5098359;28;830;-66
2021/07/11 00:14:07;;;;;;;;;;;;;;;20.63;62.19;99461.69;5097812;28;1350;-66
2021/07/11 00:16:34;;;;;;;;;;;;;;;20.62;62.26;99462.19;5096885;28;1292;-66
2021/07/11 00:19:00;;;;;;;;;;;;;;;20.66;62.41;99462.78;5098505;28;781;-65
2021/07/11 00:21:27;;;;;;;;;;;;;;;20.66;62.39;99445.94;5098117;28;810;-66
2021/07/11 00:23:54;;;;;;;;;;;;;;;20.67;62.31;99451.06;5098486;28;1909;-66
2021/07/11 00:26:20;;;;;;;;;;;;;;;20.70;62.24;99452.94;5098094;28;884;-66
2021/07/11 00:28:47;;;;;;;;;;;;;;;20.70;62.18;99449.34;5097930;28;861;-67
2021/07/11 00:31:13;;;;;;;;;;;;;;;20.70;62.26;99444.50;5097823;28;862;-66
2021/07/11 00:33:40;;;;;;;;;;;;;;;20.75;62.30;99448.66;5097833;28;833;-65
2021/07/11 00:36:07;;;;;;;;;;;;;;;20.80;61.94;99445.97;5097811;28;869;-66
2021/07/11 00:38:34;;;;;;;;;;;;;;;20.82;61.84;99439.84;5097796;28;809;-66
2021/07/11 00:41:02;;;;;;;;;;;;;;;20.88;61.59;99442.78;5095142;28;835;-65
2021/07/11 00:43:29;;;;;;;;;;;;;;;20.87;61.61;99444.03;5094451;28;1949;-65
2021/07/11 00:45:55;;;;;;;;;;;;;;;20.87;61.51;99433.59;5094580;28;814;-65
2021/07/11 00:48:22;;;;;;;;;;;;;;;20.94;61.42;99426.81;5094448;28;802;-65
2021/07/11 00:50:48;;;;;;;;;;;;;;;20.95;61.59;99434.75;5094433;28;808;-65
2021/07/11 00:53:15;;;;;;;;;;;;;;;20.89;61.80;99433.88;5094282;28;810;-65
2021/07/11 00:55:42;;;;;;;;;;;;;;;20.84;61.71;99431.72;5094305;28;873;-64
2021/07/11 00:58:09;;;;;;;;;;;;;;;20.83;61.74;99432.22;5094236;28;857;-66
2021/07/11 01:00:38;;;;;;;;;;;;;;;20.78;61.88;99434.44;5094278;28;928;-66
2021/07/11 01:03:11;;;;;;;;;;;;;;;20.72;62.16;99425.13;5094091;28;1877;-66
2021/07/11 01:05:38;;;;;;;;;;;;;;;20.68;62.50;99427.34;5094161;28;862;-66
2021/07/11 01:08:17;;;;;;;;;;;;;;;20.66;62.45;99421.44;5094099;28;865;-64
2021/07/11 01:10:48;;;;;;;;;;;;;;;20.67;62.73;99416.59;5092645;28;1171;-65
2021/07/11 01:13:19;;;;;;;;;;;;;;;20.63;62.62;99428.00;5094715;28;913;-63
2021/07/11 01:15:48;;;;;;;;;;;;;;;20.63;62.72;99419.59;5072160;28;1263;-66
2021/07/11 01:18:17;;;;;;;;;;;;;;;20.58;62.89;99420.25;5093172;28;1333;-66
2021/07/11 01:20:51;;;;;;;;;;;;;;;20.52;63.23;99425.72;5093970;28;893;-65
2021/07/11 01:23:27;;;;;;;;;;;;;;;20.48;63.43;99422.31;5093631;28;1956;-65
2021/07/11 01:25:53;;;;;;;;;;;;;;;20.47;63.49;99415.19;5093788;28;868;-64
2021/07/11 01:28:20;;;;;;;;;;;;;;;20.50;63.36;99407.81;5093851;28;837;-65
2021/07/11 01:30:50;;;;;;;;;;;;;;;20.56;63.08;99412.28;5093763;28;810;-66
2021/07/11 01:33:18;;;;;;;;;;;;;;;20.56;62.99;99409.47;5093505;28;1249;-65
2021/07/11 01:35:45;;;;;;;;;;;;;;;20.54;63.19;99405.59;5093655;28;853;-65
2021/07/11 01:38:11;;;;;;;;;;;;;;;20.53;63.26;99409.69;5092278;28;819;-66
2021/07/11 01:40:39;;;;;;;;;;;;;;;20.55;62.81;99407.94;5093417;28;869;-65
2021/07/11 01:43:06;;;;;;;;;;;;;;;20.62;62.78;99411.66;5093658;28;1948;-66
2021/07/11 01:45:33;;;;;;;;;;;;;;;20.67;62.59;99405.38;5093423;28;868;-66
2021/07/11 01:48:00;;;;;;;;;;;;;;;20.71;62.38;99401.09;5093379;28;829;-65
2021/07/11 01:50:27;;;;;;;;;;;;;;;20.72;62.24;99402.69;5093285;28;829;-63
2021/07/11 01:52:55;;;;;;;;;;;;;;;20.72;62.30;99401.91;5092823;28;852;-65
2021/07/11 01:55:22;;;;;;;;;;;;;;;20.73;62.12;99404.22;5093185;28;856;-65
2021/07/11 01:57:49;;;;;;;;;;;;;;;20.69;62.31;99403.63;5093501;28;833;-65
2021/07/11 02:00:17;;;;;;;;;;;;;;;20.71;62.26;99403.91;5093045;28;1050;-65
2021/07/11 02:02:44;;;;;;;;;;;;;;;20.75;62.00;99400.94;5093075;28;1890;-66
2021/07/11 02:05:12;;;;;;;;;;;;;;;20.78;61.84;99403.56;5092999;28;884;-66
2021/07/11 02:07:39;;;;;;;;;;;;;;;20.84;61.65;99403.63;5092934;28;833;-63
2021/07/11 02:10:07;;;;;;;;;;;;;;;20.89;61.45;99397.38;5092956;28;786;-65
2021/07/11 02:12:35;;;;;;;;;;;;;;;20.95;61.28;99391.81;5092959;28;1015;-65
2021/07/11 02:15:05;;;;;;;;;;;;;;;20.95;61.34;99401.06;5092562;28;1213;-64
2021/07/11 02:17:33;;;;;;;;;;;;;;;21.01;60.98;99401.91;5092790;28;821;-66
2021/07/11 02:20:00;;;;;;;;;;;;;;;21.07;60.62;99392.81;5092685;28;818;-65
2021/07/11 02:22:26;;;;;;;;;;;;;;;21.07;60.68;99395.63;5092522;28;791;-63
2021/07/11 02:24:53;;;;;;;;;;;;;;;21.08;60.63;99383.91;5091365;28;1910;-65
2021/07/11 02:27:20;;;;;;;;;;;;;;;21.11;60.73;99387.78;5092495;28;847;-66
2021/07/11 02:29:52;;;;;;;;;;;;;;;21.09;60.84;99388.25;5092571;28;833;-64
2021/07/11 02:32:19;;;;;;;;;;;;;;;21.10;60.85;99389.81;5092650;28;845;-65
2021/07/11 02:34:46;;;;;;;;;;;;;;;21.11;60.82;99394.16;5092433;28;817;-66
2021/07/11 02:37:15;;;;;;;;;;;;;;;21.10;60.70;99394.63;5092431;28;802;-65
2021/07/11 02:39:43;;;;;;;;;;;;;;;21.08;60.89;99392.34;5092410;28;1220;-66
2021/07/11 02:42:13;;;;;;;;;;;;;;;21.07;60.98;99396.38;5092667;28;821;-66
2021/07/11 02:44:44;;;;;;;;;;;;;;;21.03;60.92;99395.81;5092162;28;1885;-65
2021/07/11 02:47:13;;;;;;;;;;;;;;;21.03;60.90;99403.47;5092196;28;842;-66
2021/07/11 02:49:42;;;;;;;;;;;;;;;21.05;60.99;99407.34;5092092;28;844;-66
2021/07/11 02:52:09;;;;;;;;;;;;;;;21.12;60.70;99400.53;5091989;28;834;-66
2021/07/11 02:54:38;;;;;;;;;;;;;;;21.13;60.74;99391.63;5092054;28;893;-67
2021/07/11 02:57:06;;;;;;;;;;;;;;;21.12;60.89;99397.72;5092014;28;900;-65
2021/07/11 02:59:34;;;;;;;;;;;;;;;21.15;61.00;99403.16;5092065;28;889;-65
2021/07/11 03:02:02;;;;;;;;;;;;;;;21.24;60.65;99395.91;5091931;28;873;-66
2021/07/11 03:04:30;;;;;;;;;;;;;;;21.31;60.29;99401.88;5091215;28;1977;-65
2021/07/11 03:06:57;;;;;;;;;;;;;;;21.41;60.29;99406.16;5091896;28;794;-65
2021/07/11 03:09:24;;;;;;;;;;;;;;;21.47;60.12;99414.69;5073792;28;1265;-64
2021/07/11 03:11:50;;;;;;;;;;;;;;;21.48;59.92;99413.41;5091935;28;865;-65
2021/07/11 03:14:18;;;;;;;;;;;;;;;21.49;60.13;99423.41;5091902;28;1277;-64
2021/07/11 03:16:48;;;;;;;;;;;;;;;21.55;59.72;99413.03;5091824;28;821;-67
2021/07/11 03:19:15;;;;;;;;;;;;;;;21.60;59.57;99406.72;5092063;28;813;-65
2021/07/11 03:21:42;;;;;;;;;;;;;;;21.61;59.77;99413.09;5091703;28;881;-66
2021/07/11 03:24:09;;;;;;;;;;;;;;;21.58;60.04;99414.88;5092388;28;1973;-65
2021/07/11 03:26:36;;;;;;;;;;;;;;;21.64;59.91;99414.97;5091717;28;897;-66
2021/07/11 03:29:06;;;;;;;;;;;;;;;21.66;60.03;99420.06;5091930;28;861;-66
2021/07/11 03:31:33;;;;;;;;;;;;;;;21.73;59.60;99417.66;5091650;28;845;-65
2021/07/11 03:34:00;;;;;;;;;;;;;;;21.85;59.19;99414.97;5091942;28;954;-65
2021/07/11 03:36:29;;;;;;;;;;;;;;;21.90;59.60;99417.13;5091647;28;824;-64
2021/07/11 03:38:58;;;;;;;;;;;;;;;21.92;58.91;99417.41;5091644;28;891;-66
2021/07/11 03:41:27;;;;;;;;;;;;;;;22.11;58.96;99420.72;5091604;28;915;-66
2021/07/11 03:43:56;;;;;;;;;;;;;;;22.29;58.45;99419.69;5091358;28;1914;-65
2021/07/11 03:46:24;;;;;;;;;;;;;;;22.46;58.03;99417.09;5091568;28;880;-63
2021/07/11 03:48:56;;;;;;;;;;;;;;;22.41;57.85;99424.97;5091733;28;881;-65
2021/07/11 03:51:24;;;;;;;;;;;;;;;22.17;58.82;99421.59;5091357;28;865;-65
2021/07/11 03:53:54;;;;;;;;;;;;;;;22.12;58.56;99417.41;5091302;28;822;-63
2021/07/11 03:56:24;;;;;;;;;;;;;;;22.12;59.03;99423.03;5092059;28;818;-64
2021/07/11 03:58:51;;;;;;;;;;;;;;;22.03;58.61;99397.84;5091398;28;1224;-63
2021/07/11 04:01:22;;;;;;;;;;;;;;;22.24;58.86;99412.75;5091444;28;896;-63
2021/07/11 04:03:50;;;;;;;;;;;;;;;22.24;58.59;99409.91;5091314;28;1894;-62
2021/07/11 04:06:19;;;;;;;;;;;;;;;22.36;58.45;99410.81;5091328;28;920;-63
2021/07/11 04:08:46;;;;;;;;;;;;;;;22.50;57.97;99409.97;5091296;28;846;-63
2021/07/11 04:11:12;;;;;;;;;;;;;;;22.61;58.03;99412.91;5091290;28;860;-64
2021/07/11 04:13:39;;;;;;;;;;;;;;;22.73;57.71;99410.22;5091760;28;936;-63
2021/07/11 04:16:07;;;;;;;;;;;;;;;22.86;57.33;99409.84;5093021;28;1389;-63
2021/07/11 04:18:43;;;;;;;;;;;;;;;22.92;57.40;99405.81;5095127;28;889;-63
2021/07/11 04:21:11;;;;;;;;;;;;;;;22.96;57.64;99412.00;5094927;28;880;-64
2021/07/11 04:23:38;;;;;;;;;;;;;;;23.01;57.29;99411.28;5094899;28;1917;-62
2021/07/11 04:26:06;;;;;;;;;;;;;;;23.14;57.25;99410.91;5094946;28;881;-63
2021/07/11 04:28:33;;;;;;;;;;;;;;;23.27;56.66;99410.50;5095099;28;775;-64
2021/07/11 04:31:02;;;;;;;;;;;;;;;23.48;56.36;99411.16;5095603;28;786;-63
2021/07/11 04:33:29;;;;;;;;;;;;;;;23.71;55.46;99414.16;5094902;28;837;-64
2021/07/11 04:35:56;;;;;;;;;;;;;;;23.87;55.06;99409.91;5094898;28;829;-64
2021/07/11 04:38:23;;;;;;;;;;;;;;;24.07;54.73;99403.34;5094878;28;806;-62
2021/07/11 04:40:50;;;;;;;;;;;;;;;24.30;54.27;99404.22;5094843;28;847;-63
2021/07/11 04:43:17;;;;;;;;;;;;;;;24.62;53.54;99404.84;5094859;28;1893;-63
2021/07/11 04:45:47;;;;;;;;;;;;;;;24.87;53.31;99411.59;5094640;28;861;-63
2021/07/11 04:48:14;;;;;;;;;;;;;;;24.96;52.57;99413.41;5094530;28;849;-62
2021/07/11 04:50:44;;;;;;;;;;;;;;;24.96;52.36;99413.41;5094309;28;806;-62
2021/07/11 04:53:14;;;;;;;;;;;;;;;24.87;52.17;99422.91;5094445;28;873;-63
2021/07/11 04:55:40;;;;;;;;;;;;;;;24.82;52.09;99412.38;5094416;28;826;-62
2021/07/11 04:58:07;;;;;;;;;;;;;;;24.80;52.59;99420.59;5094309;28;809;-63
2021/07/11 05:00:33;;;;;;;;;;;;;;;24.84;52.66;99415.47;5094262;28;841;-64
2021/07/11 05:03:00;;;;;;;;;;;;;;;24.79;52.77;99414.16;5094083;28;1894;-63
2021/07/11 05:05:27;;;;;;;;;;;;;;;24.67;53.29;99418.25;5094184;28;920;-63
2021/07/11 05:13:27;;;;;;;;;;;;;;;23.80;55.36;99428.09;5970266;22;1690;-64
2021/07/11 05:15:54;;;;;;;;;;;;;;;23.66;56.00;99421.28;5073804;28;845;-65
2021/07/11 05:18:19;;;;;;;;;;;;;;;24.46;54.27;99420.47;5074045;28;849;-62
2021/07/11 05:20:46;;;;;;;;;;;;;;;25.65;51.57;99415.75;5073673;28;817;-63
2021/07/11 05:23:13;;;;;;;;;;;;;;;26.51;49.14;99420.66;5073406;28;1898;-63
2021/07/11 05:25:40;;;;;;;;;;;;;;;27.10;47.01;99421.38;5073509;28;874;-62
2021/07/11 05:28:07;;;;;;;;;;;;;;;27.71;47.11;99424.97;5072988;28;821;-63
2021/07/11 05:30:33;;;;;;;;;;;;;;;28.17;45.36;99417.56;5073396;28;857;-64
2021/07/11 05:33:00;;;;;;;;;;;;;;;28.27;44.93;99413.03;5073490;28;858;-63
2021/07/11 05:35:27;;;;;;;;;;;;;;;28.62;43.73;99417.00;5073343;28;872;-62
2021/07/11 05:37:54;;;;;;;;;;;;;;;28.83;43.53;99422.16;5073279;28;818;-62
2021/07/11 05:40:21;;;;;;;;;;;;;;;28.99;43.51;99414.66;5073353;28;815;-62
2021/07/11 05:42:49;;;;;;;;;;;;;;;29.30;43.69;99421.72;5073306;28;1886;-62
2021/07/11 05:45:16;;;;;;;;;;;;;;;29.71;41.44;99420.50;5073263;28;833;-61
2021/07/11 05:47:42;;;;;;;;;;;;;;;29.70;41.38;99425.44;5073122;28;857;-62
2021/07/11 05:50:09;;;;;;;;;;;;;;;30.01;41.80;99417.34;5073137;28;841;-61
2021/07/11 05:52:35;;;;;;;;;;;;;;;30.25;40.89;99427.72;5072960;28;892;-61
2021/07/11 05:55:03;;;;;;;;;;;;;;;30.41;40.89;99430.84;5073064;28;845;-61
2021/07/11 05:57:31;;;;;;;;;;;;;;;30.42;40.49;99430.28;5073095;28;849;-62
2021/07/11 05:59:57;;;;;;;;;;;;;;;30.45;40.13;99432.03;5072915;28;814;-61
2021/07/11 06:02:26;;;;;;;;;;;;;;;30.50;40.13;99431.13;5072911;28;905;-62
2021/07/11 06:04:53;;;;;;;;;;;;;;;30.19;41.46;99435.63;5072682;28;1885;-62
2021/07/11 06:07:19;;;;;;;;;;;;;;;28.85;43.42;99440.22;5072657;28;841;-63
2021/07/11 06:09:46;;;;;;;;;;;;;;;27.25;46.45;99438.03;5072695;28;822;-63
2021/07/11 06:12:13;;;;;;;;;;;;;;;28.02;46.06;99432.19;5072391;28;868;-62
2021/07/11 06:14:40;;;;;;;;;;;;;;;29.42;42.03;99423.03;5084143;28;1444;-62
2021/07/11 06:17:06;;;;;;;;;;;;;;;30.16;40.67;99424.59;5092749;28;814;-61
2021/07/11 06:19:33;;;;;;;;;;;;;;;30.51;39.79;99429.84;5092736;28;872;-61
2021/07/11 06:22:00;;;;;;;;;;;;;;;30.78;39.74;99426.91;5092682;28;885;-61
2021/07/11 06:24:27;;;;;;;;;;;;;;;30.87;39.09;99429.31;5092615;28;1914;-61
2021/07/11 06:26:54;;;;;;;;;;;;;;;30.92;39.39;99424.81;5092499;28;795;-61
2021/07/11 06:29:20;;;;;;;;;;;;;;;31.02;39.66;99433.66;5092498;28;880;-61
2021/07/11 06:31:46;;;;;;;;;;;;;;;31.33;38.55;99434.72;5092645;28;874;-61
2021/07/11 06:34:13;;;;;;;;;;;;;;;31.16;38.07;99428.66;5092711;28;893;-61
2021/07/11 06:36:40;;;;;;;;;;;;;;;31.20;38.72;99429.09;5092409;28;1021;-61
2021/07/11 06:39:06;;;;;;;;;;;;;;;31.16;38.82;99423.72;5091358;28;881;-62
2021/07/11 06:41:33;;;;;;;;;;;;;;;31.37;38.07;99426.56;5092207;28;842;-62
2021/07/11 06:43:59;;;;;;;;;;;;;;;31.68;37.98;99430.47;5092271;28;1956;-61
2021/07/11 06:46:26;;;;;;;;;;;;;;;31.60;38.32;99431.72;5092256;28;842;-62
2021/07/11 06:48:52;;;;;;;;;;;;;;;31.75;37.75;99426.16;5092115;28;882;-61
2021/07/11 06:51:19;;;;;;;;;;;;;;;31.81;37.63;99429.59;5092175;28;850;-62
2021/07/11 06:53:45;;;;;;;;;;;;;;;31.83;37.44;99432.66;5092264;28;857;-60
2021/07/11 06:56:11;;;;;;;;;;;;;;;31.72;37.86;99430.13;5092008;28;874;-62
2021/07/11 06:58:38;;;;;;;;;;;;;;;31.61;38.25;99431.19;5092107;28;814;-63
2021/07/11 07:01:04;;;;;;;;;;;;;;;31.98;37.36;99434.09;5092043;28;877;-62
2021/07/11 07:03:32;;;;;;;;;;;;;;;32.14;37.60;99433.66;5091889;28;1886;-62
2021/07/11 07:05:59;;;;;;;;;;;;;;;32.39;37.47;99435.31;5091975;28;861;-62
2021/07/11 07:08:26;;;;;;;;;;;;;;;32.39;37.75;99435.31;5091977;28;817;-62
2021/07/11 07:10:53;;;;;;;;;;;;;;;32.31;37.21;99444.63;5091663;28;876;-63
2021/07/11 07:13:21;;;;;;;;;;;;;;;32.33;37.76;99429.78;5091913;28;1588;-63
2021/07/11 07:15:48;;;;;;;;;;;;;;;32.17;37.36;99436.72;5091895;28;845;-61
2021/07/11 07:18:14;;;;;;;;;;;;;;;32.03;37.85;99439.69;5091791;28;870;-62
2021/07/11 07:20:41;;;;;;;;;;;;;;;32.23;38.04;99440.19;5091834;28;802;-62
2021/07/11 07:23:07;;;;;;;;;;;;;;;32.50;37.61;99437.84;5091961;28;1906;-63
2021/07/11 07:25:34;;;;;;;;;;;;;;;32.60;37.11;99427.41;5091714;28;881;-63
2021/07/11 07:28:00;;;;;;;;;;;;;;;33.04;36.18;99444.53;5091636;28;817;-62
2021/07/11 07:30:27;;;;;;;;;;;;;;;33.10;35.26;99432.94;5091671;28;860;-62
2021/07/11 07:32:54;;;;;;;;;;;;;;;32.99;35.78;99436.13;5091782;28;822;-63
2021/07/11 07:35:20;;;;;;;;;;;;;;;33.09;35.85;99446.47;5091544;28;872;-62
2021/07/11 07:37:48;;;;;;;;;;;;;;;32.88;36.76;99455.19;5091454;28;904;-62
2021/07/11 07:40:17;;;;;;;;;;;;;;;33.06;36.08;99452.56;5091491;28;884;-62
2021/07/11 07:42:44;;;;;;;;;;;;;;;33.12;35.44;99439.63;5091821;28;862;-61
2021/07/11 07:45:11;;;;;;;;;;;;;;;32.99;36.55;99445.50;5091388;28;1939;-62
2021/07/11 07:47:38;;;;;;;;;;;;;;;33.22;36.15;99442.66;5091488;28;861;-63
2021/07/11 07:50:06;;;;;;;;;;;;;;;33.53;36.08;99446.34;5091708;28;834;-64
2021/07/11 07:52:33;;;;;;;;;;;;;;;33.63;36.00;99442.91;5077233;28;1259;-62
2021/07/11 07:54:59;;;;;;;;;;;;;;;33.99;36.10;99436.19;5095529;28;885;-63
2021/07/11 07:57:26;;;;;;;;;;;;;;;33.93;34.16;99451.50;5095509;28;845;-62
2021/07/11 07:59:55;;;;;;;;;;;;;;;33.70;34.71;99445.78;5095392;28;814;-64
2021/07/11 08:02:23;;;;;;;;;;;;;;;33.87;34.95;99455.91;5095423;28;810;-63
2021/07/11 08:04:49;;;;;;;;;;;;;;;33.49;34.08;99448.81;5095227;28;1960;-63
2021/07/11 08:07:16;;;;;;;;;;;;;;;33.32;35.04;99457.97;5095377;28;848;-62
2021/07/11 08:09:43;;;;;;;;;;;;;;;33.39;35.32;99442.13;5095441;28;794;-63
2021/07/11 08:12:10;;;;;;;;;;;;;;;33.37;34.82;99444.78;5095188;28;946;-62
2021/07/11 08:14:36;;;;;;;;;;;;;;;33.36;36.24;99460.47;5083821;28;1246;-64
2021/07/11 08:17:03;;;;;;;;;;;;;;;34.11;35.92;99461.00;5056842;28;909;-63
2021/07/11 08:19:30;;;;;;;;;;;;;;;34.58;34.51;99455.94;5073511;28;1160;-63
2021/07/11 08:21:57;;;;;;;;;;;;;;;34.36;34.82;99457.56;5074698;28;858;-63
2021/07/11 08:24:24;;;;;;;;;;;;;;;34.56;33.48;99461.47;5074672;28;2001;-63
2021/07/11 08:26:51;;;;;;;;;;;;;;;34.31;34.06;99458.50;5074619;28;838;-63
2021/07/11 08:29:17;;;;;;;;;;;;;;;34.22;34.35;99459.88;5074638;28;885;-62
2021/07/11 08:31:45;;;;;;;;;;;;;;;34.15;33.46;99467.16;5074565;28;885;-64
2021/07/11 08:34:12;;;;;;;;;;;;;;;34.45;32.66;99464.78;5074534;28;842;-62
2021/07/11 08:36:39;;;;;;;;;;;;;;;34.19;33.20;99454.53;5074381;28;854;-64
2021/07/11 08:39:05;;;;;;;;;;;;;;;34.24;32.28;99462.16;5074395;28;934;-63
2021/07/11 08:41:32;;;;;;;;;;;;;;;34.20;33.18;99465.41;5074340;28;908;-63
2021/07/11 08:44:00;;;;;;;;;;;;;;;34.38;33.04;99456.97;5074263;28;1949;-64
2021/07/11 08:46:27;;;;;;;;;;;;;;;34.84;32.13;99462.53;5074315;28;803;-63
2021/07/11 08:48:53;;;;;;;;;;;;;;;34.63;32.39;99457.06;5074267;28;794;-63
2021/07/11 08:51:20;;;;;;;;;;;;;;;34.40;33.36;99457.91;5074190;28;842;-63
2021/07/11 08:53:47;;;;;;;;;;;;;;;34.37;32.77;99450.47;5074161;28;842;-64
2021/07/11 08:56:16;;;;;;;;;;;;;;;34.49;32.71;99459.41;5056229;28;2536;-63
2021/07/11 08:58:47;;;;;;;;;;;;;;;34.50;33.27;99455.19;5074084;28;861;-64
2021/07/11 09:01:13;;;;;;;;;;;;;;;34.35;33.50;99461.75;5073940;28;857;-63
2021/07/11 09:03:40;;;;;;;;;;;;;;;34.42;33.24;99460.97;5073054;28;1886;-62
2021/07/11 09:06:07;;;;;;;;;;;;;;;34.27;34.24;99458.91;5073913;28;829;-63
2021/07/11 09:08:34;;;;;;;;;;;;;;;34.39;33.42;99452.75;5073881;28;825;-62
2021/07/11 09:11:02;;;;;;;;;;;;;;;34.27;33.69;99455.25;5073962;28;778;-63
2021/07/11 09:13:32;;;;;;;;;;;;;;;34.19;34.00;99451.69;5074006;28;1366;-64
2021/07/11 09:15:59;;;;;;;;;;;;;;;34.39;34.05;99458.50;5073755;28;975;-63
2021/07/11 09:18:28;;;;;;;;;;;;;;;33.99;34.58;99459.13;5073745;28;818;-64
2021/07/11 09:20:56;;;;;;;;;;;;;;;33.97;34.81;99462.59;5074012;28;865;-63
2021/07/11 09:23:24;;;;;;;;;;;;;;;33.85;34.44;99447.88;5073838;28;1906;-63
2021/07/11 09:26:00;;;;;;;;;;;;;;;33.91;36.23;99459.16;5073914;28;822;-64
2021/07/11 09:28:28;;;;;;;;;;;;;;;34.23;35.73;99458.53;5073883;28;782;-63
2021/07/11 09:31:08;;;;;;;;;;;;;;;34.82;35.87;99454.50;5073462;28;853;-62
2021/07/11 09:33:36;;;;;;;;;;;;;;;34.64;34.48;99452.88;5073584;28;818;-64
2021/07/11 09:36:08;;;;;;;;;;;;;;;34.45;34.19;99448.31;5073452;28;798;-62
2021/07/11 09:38:36;;;;;;;;;;;;;;;34.46;35.22;99466.28;5073250;28;958;-63
2021/07/11 09:41:22;;;;;;;;;;;;;;;34.34;34.73;99461.00;5055237;28;782;-63
2021/07/11 09:43:52;;;;;;;;;;;;;;;34.12;35.54;99461.81;5073179;28;2021;-62
2021/07/11 09:46:19;;;;;;;;;;;;;;;33.89;36.02;99456.09;5073198;28;818;-61
2021/07/11 09:48:46;;;;;;;;;;;;;;;33.76;36.06;99459.94;5073222;28;857;-63
2021/07/11 09:51:16;;;;;;;;;;;;;;;33.54;35.89;99459.34;5073086;28;822;-62
2021/07/11 09:53:43;;;;;;;;;;;;;;;33.40;37.18;99474.41;5073113;28;889;-63
2021/07/11 09:56:28;;;;;;;;;;;;;;;33.41;36.31;99462.34;5073160;28;989;-63
2021/07/11 09:58:55;;;;;;;;;;;;;;;33.26;37.45;99465.22;5072933;28;854;-66
2021/07/11 10:01:23;;;;;;;;;;;;;;;33.01;36.06;99474.31;5073150;28;838;-64
2021/07/11 10:03:49;;;;;;;;;;;;;;;32.55;37.51;99454.09;5072728;28;1885;-63
2021/07/11 10:06:15;;;;;;;;;;;;;;;32.44;39.49;99457.28;5072762;28;842;-63
2021/07/11 10:08:42;;;;;;;;;;;;;;;32.56;38.56;99449.91;5072591;28;874;-63
2021/07/11 10:11:09;;;;;;;;;;;;;;;32.55;40.44;99454.84;5072841;28;806;-64
2021/07/11 10:13:36;;;;;;;;;;;;;;;32.46;39.43;99440.31;5074974;28;1367;-64
2021/07/11 10:16:07;;;;;;;;;;;;;;;32.20;39.54;99449.88;5092851;28;835;-63
2021/07/11 10:18:34;;;;;;;;;;;;;;;32.22;40.71;99433.72;5092778;28;853;-62
2021/07/11 10:21:01;;;;;;;;;;;;;;;32.42;39.94;99445.63;5092732;28;794;-63
2021/07/11 10:23:38;;;;;;;;;;;;;;;32.38;39.92;99433.78;5092419;28;1967;-63
2021/07/11 10:26:07;;;;;;;;;;;;;;;32.32;39.35;99433.94;5092730;28;873;-63
2021/07/11 10:28:35;;;;;;;;;;;;;;;32.40;39.96;99431.13;5092599;28;830;-63
2021/07/11 10:31:03;;;;;;;;;;;;;;;32.48;39.89;99435.56;5092378;28;1377;-63
2021/07/11 10:33:30;;;;;;;;;;;;;;;32.39;40.48;99426.72;5092543;28;873;-62
2021/07/11 10:35:57;;;;;;;;;;;;;;;32.53;40.24;99420.34;5092468;28;794;-63
2021/07/11 10:38:34;;;;;;;;;;;;;;;32.55;40.80;99426.25;5092348;28;814;-62
2021/07/11 10:41:10;;;;;;;;;;;;;;;32.79;40.26;99429.97;5092635;28;870;-63
2021/07/11 10:43:37;;;;;;;;;;;;;;;33.19;40.63;99414.44;5074197;28;1886;-63
2021/07/11 10:46:03;;;;;;;;;;;;;;;33.29;37.95;99412.53;5092535;28;904;-65
2021/07/11 10:48:30;;;;;;;;;;;;;;;33.18;38.48;99405.09;5092315;28;909;-63
2021/07/11 10:50:57;;;;;;;;;;;;;;;33.10;39.55;99399.34;5092242;28;857;-63
2021/07/11 10:53:29;;;;;;;;;;;;;;;33.31;39.65;99413.50;5092186;28;810;-62
2021/07/11 10:55:55;;;;;;;;;;;;;;;33.34;38.53;99400.13;5092167;28;800;-62
2021/07/11 10:58:22;;;;;;;;;;;;;;;33.31;37.10;99401.28;5092138;28;833;-64
2021/07/11 11:00:49;;;;;;;;;;;;;;;33.33;37.92;99401.47;5092097;28;915;-64
2021/07/11 11:03:24;;;;;;;;;;;;;;;33.18;36.90;99395.72;5092037;28;1890;-64
2021/07/11 11:05:51;;;;;;;;;;;;;;;32.96;36.59;99392.22;5091968;28;845;-64
2021/07/11 11:08:23;;;;;;;;;;;;;;;32.93;39.22;99388.41;5091797;28;770;-63
2021/07/11 11:10:54;;;;;;;;;;;;;;;33.42;38.36;99392.31;5092168;28;920;-63
2021/07/11 11:13:27;;;;;;;;;;;;;;;33.63;37.42;99395.00;5091608;28;1159;-64
2021/07/11 11:15:55;;;;;;;;;;;;;;;33.90;38.46;99388.81;5071708;28;798;-62
2021/07/11 11:18:27;;;;;;;;;;;;;;;34.09;37.64;99392.00;5071642;28;813;-62
2021/07/11 11:20:56;;;;;;;;;;;;;;;34.16;35.77;99387.63;5071585;28;892;-64
2021/07/11 11:23:23;;;;;;;;;;;;;;;34.14;37.02;99387.44;5071696;28;1914;-64
2021/07/11 11:25:51;;;;;;;;;;;;;;;34.38;35.21;99373.81;5070836;28;807;-63
2021/07/11 11:28:30;;;;;;;;;;;;;;;34.20;35.23;99376.53;5071530;28;823;-63
2021/07/11 11:31:16;;;;;;;;;;;;;;;34.17;35.87;99380.56;5071479;28;881;-62
2021/07/11 11:33:59;;;;;;;;;;;;;;;33.91;34.78;99373.91;5071408;28;886;-63
2021/07/11 11:36:29;;;;;;;;;;;;;;;34.38;36.20;99368.06;5071474;28;823;-63
2021/07/11 11:38:57;;;;;;;;;;;;;;;34.52;34.88;99355.72;5071607;28;802;-63
2021/07/11 11:41:25;;;;;;;;;;;;;;;34.65;35.89;99359.69;5071413;28;893;-62
2021/07/11 11:43:52;;;;;;;;;;;;;;;35.18;35.43;99353.59;5071162;28;1949;-64
2021/07/11 11:46:29;;;;;;;;;;;;;;;35.28;34.79;99352.97;5071728;28;814;-63
2021/07/11 11:48:59;;;;;;;;;;;;;;;35.50;33.87;99345.50;5071213;28;848;-62
2021/07/11 11:51:28;;;;;;;;;;;;;;;35.68;33.12;99346.31;5071606;28;814;-63
2021/07/11 11:53:55;;;;;;;;;;;;;;;35.83;34.06;99351.09;5071527;28;819;-63
2021/07/11 11:56:22;;;;;;;;;;;;;;;35.83;33.55;99349.03;5071461;28;885;-63
2021/07/11 11:58:49;;;;;;;;;;;;;;;35.94;33.65;99348.50;5071465;28;806;-62
2021/07/11 12:01:17;;;;;;;;;;;;;;;35.88;32.35;99347.25;5053403;28;1176;-64
2021/07/11 12:03:45;;;;;;;;;;;;;;;34.89;32.86;99350.38;5071240;28;1933;-64
2021/07/11 12:06:14;;;;;;;;;;;;;;;34.80;34.71;99353.88;5070930;28;827;-63
2021/07/11 12:08:43;;;;;;;;;;;;;;;35.31;33.04;99360.41;5053325;28;861;-63
2021/07/11 12:11:11;;;;;;;;;;;;;;;35.66;31.46;99357.63;5071083;28;818;-63
2021/07/11 12:13:38;;;;;;;;;;;;;;;35.61;31.48;99361.47;5071402;28;1268;-63
2021/07/11 12:16:09;;;;;;;;;;;;;;;34.54;32.47;99375.97;5071136;28;866;-63
2021/07/11 12:18:43;;;;;;;;;;;;;;;33.53;32.58;99369.00;5071102;28;842;-63
2021/07/11 12:21:10;;;;;;;;;;;;;;;33.40;32.24;99382.75;5071029;28;877;-62
2021/07/11 12:23:37;;;;;;;;;;;;;;;32.73;33.24;99395.81;5070884;28;1914;-64
2021/07/11 12:26:06;;;;;;;;;;;;;;;32.32;33.98;99388.19;5070965;28;858;-63
2021/07/11 12:28:34;;;;;;;;;;;;;;;32.68;33.96;99376.72;5071341;28;826;-63
2021/07/11 12:31:00;;;;;;;;;;;;;;;32.43;34.38;99379.28;5071106;28;838;-64
2021/07/11 12:33:28;;;;;;;;;;;;;;;31.83;36.78;99386.19;5071254;28;885;-64
2021/07/11 12:35:58;;;;;;;;;;;;;;;30.94;40.34;99382.22;5070918;28;868;-63
2021/07/11 12:38:29;;;;;;;;;;;;;;;30.11;43.33;99378.56;5074716;28;854;-63
2021/07/11 12:40:57;;;;;;;;;;;;;;;29.61;45.38;99377.41;5056730;28;815;-64
2021/07/11 12:43:33;;;;;;;;;;;;;;;29.47;46.33;99379.50;5074613;28;1951;-64
2021/07/11 12:46:04;;;;;;;;;;;;;;;29.34;46.69;99376.63;5074279;28;889;-64
2021/07/11 12:48:35;;;;;;;;;;;;;;;29.17;47.44;99373.28;5074617;28;861;-62
2021/07/11 12:51:11;;;;;;;;;;;;;;;29.09;47.57;99365.38;5074102;28;862;-63
2021/07/11 12:53:37;;;;;;;;;;;;;;;29.16;47.81;99371.75;5074462;28;829;-63
2021/07/11 12:56:05;;;;;;;;;;;;;;;29.30;47.89;99365.56;5074426;28;865;-63
2021/07/11 12:58:42;;;;;;;;;;;;;;;29.44;47.64;99372.03;5074128;28;850;-63
2021/07/11 13:01:09;;;;;;;;;;;;;;;29.45;48.00;99364.28;5074169;28;893;-63
2021/07/11 13:03:36;;;;;;;;;;;;;;;29.40;47.83;99373.66;5074031;28;2019;-64
2021/07/11 13:06:03;;;;;;;;;;;;;;;29.35;46.64;99380.22;5073961;28;810;-63
2021/07/11 13:08:29;;;;;;;;;;;;;;;29.31;46.45;99374.84;5073916;28;916;-63
2021/07/11 13:10:55;;;;;;;;;;;;;;;29.25;42.84;99374.97;5073902;28;866;-64
2021/07/11 13:13:22;;;;;;;;;;;;;;;29.21;41.00;99374.53;5074052;28;1334;-63
2021/07/11 13:15:49;;;;;;;;;;;;;;;29.34;41.39;99375.84;5074009;28;806;-63